CST,Max TemperatureF,Mean TemperatureF,Min TemperatureF,Max Dew PointF,MeanDew PointF,Min DewpointF,Max Humidity, Mean Humidity, Min Humidity, Max Sea Level PressureIn, Mean Sea Level PressureIn, Min Sea Level PressureIn, Max VisibilityMiles, Mean VisibilityMiles, Min VisibilityMiles, Max Wind SpeedMPH, Mean Wind SpeedMPH, Max Gust SpeedMPH,PrecipitationIn, CloudCover, Events, WindDirDegrees
2013-1-1,20,10,0,14,8,-3,92,84,70,30.30,30.22,30.09,10,10,10,10,3,,0.00,0,,210
2013-1-2,33,21,9,32,22,6,96,89,85,30.22,30.09,30.03,10,10,4,12,6,,0.00,5,Snow,265
2013-1-3,30,24,17,28,20,13,96,86,77,30.42,30.33,30.22,10,10,10,20,9,23,0.00,5,Snow,271
2013-1-4,29,22,14,20,16,12,92,78,65,30.29,30.19,30.11,10,10,10,9,6,,0.00,0,,197
2013-1-5,33,23,13,26,18,11,95,82,69,30.21,30.07,30.00,10,10,10,29,7,33,0.00,1,,262
2013-1-6,31,20,9,24,18,7,95,82,69,30.31,30.23,30.09,10,10,10,16,7,24,0.00,1,,210
2013-1-7,36,27,17,30,25,17,100,82,70,30.08,30.00,29.94,10,9,0,18,10,26,0.00,0,Fog,196
2013-1-8,35,22,10,30,22,10,100,90,77,30.13,29.92,29.83,10,8,1,14,3,21,0.03,0,,214
2013-1-9,42,30,17,32,27,17,100,85,62,30.43,30.31,30.13,10,10,7,8,3,,0.00,0,,177
2013-1-10,39,32,24,37,32,24,100,90,61,30.30,29.96,29.67,10,6,0,15,6,21,0.04,6,Fog-Rain,138
2013-1-11,48,37,25,46,37,19,100,98,79,29.74,29.52,29.38,10,4,0,32,8,40,0.00,6,Fog,167
2013-1-12,24,17,10,18,10,5,81,71,59,30.14,30.03,29.76,10,10,10,32,19,44,0.00,2,,292
2013-1-13,21,14,6,8,6,3,88,73,52,30.32,30.22,30.13,10,10,10,18,10,22,0.00,0,,296
2013-1-14,28,16,5,15,10,3,90,74,50,30.44,30.36,30.32,10,10,10,9,2,,0.00,1,,209
2013-1-15,34,22,11,22,16,8,91,75,58,30.33,30.20,30.02,10,10,10,15,5,18,0.00,0,,195
2013-1-16,52,37,22,34,29,18,94,74,44,30.25,30.01,29.89,10,10,10,15,10,21,0.00,2,,277
2013-1-17,33,28,24,33,30,25,100,99,94,30.45,30.37,30.26,10,4,0,9,3,,0.00,6,Fog-Snow,190
2013-1-18,48,39,30,34,31,28,98,75,57,30.26,30.01,29.88,10,10,7,17,8,26,0.00,0,,205
2013-1-19,53,37,21,34,28,13,99,71,43,30.36,30.05,29.85,10,10,10,23,7,30,0.00,0,,319
2013-1-20,20,16,13,13,9,6,89,73,55,30.43,30.37,30.33,10,10,10,12,6,17,0.00,4,Snow,347
2013-1-21,15,10,5,12,-1,-8,86,58,45,30.45,30.39,30.34,10,10,10,23,10,31,0.00,7,Snow,325
2013-1-22,20,15,10,13,10,2,90,82,65,30.36,30.30,30.22,10,7,2,8,3,,0.00,4,Snow,117
2013-1-23,29,19,9,21,12,1,90,77,61,30.51,30.29,30.13,10,10,10,15,7,22,0.00,0,,347
2013-1-24,19,10,2,8,1,-5,75,64,54,30.55,30.37,30.16,10,10,10,14,8,20,0.00,3,,108
2013-1-25,48,31,14,28,20,8,90,68,41,30.24,30.16,30.10,10,10,10,15,5,25,0.00,0,,293
2013-1-26,48,32,17,29,23,14,89,71,46,30.24,30.12,29.98,10,10,10,16,7,23,0.00,0,,121
2013-1-27,40,38,35,41,36,28,100,94,63,29.98,29.80,29.69,10,4,0,13,8,20,0.06,8,Fog-Rain,139
2013-1-28,40,37,34,41,38,35,100,100,100,29.85,29.74,29.56,2,0,0,10,2,,0.00,8,Fog,111
2013-1-29,37,34,32,37,32,29,100,94,83,29.71,29.66,29.60,10,8,2,18,12,31,0.00,8,Snow,331
2013-1-30,31,22,13,28,17,9,98,81,67,29.93,29.83,29.70,10,8,1,26,18,33,0.00,6,Snow,317
2013-1-31,13,6,0,9,-1,-6,83,70,58,30.41,30.21,29.94,10,10,10,32,15,40,0.00,2,,310